sensor_id;sensor_type;location;lat;lon;timestamp;P1;durP1;ratioP1;P2;durP2;ratioP2
69246;SDS011;56358;56.328;43.992;2023-08-06T00:01:33;16.55;;;11.35;;
69246;SDS011;56358;56.328;43.992;2023-08-06T00:03:34;21.48;;;11.50;;
69246;SDS011;56358;56.328;43.992;2023-08-06T00:05:34;19.85;;;12.23;;
69246;SDS011;56358;56.328;43.992;2023-08-06T00:07:35;19.38;;;11.00;;
69246;SDS011;56358;56.328;43.992;2023-08-06T00:09:36;22.63;;;12.13;;
69246;SDS011;56358;56.328;43.992;2023-08-06T00:11:36;20.55;;;11.15;;
69246;SDS011;56358;56.328;43.992;2023-08-06T00:13:37;26.10;;;11.68;;
69246;SDS011;56358;56.328;43.992;2023-08-06T00:15:38;18.73;;;11.27;;
69246;SDS011;56358;56.328;43.992;2023-08-06T00:17:38;17.23;;;10.32;;
69246;SDS011;56358;56.328;43.992;2023-08-06T00:19:39;19.60;;;11.93;;
69246;SDS011;56358;56.328;43.992;2023-08-06T00:21:39;21.48;;;11.07;;
69246;SDS011;56358;56.328;43.992;2023-08-06T00:23:41;20.10;;;11.75;;
69246;SDS011;56358;56.328;43.992;2023-08-06T00:25:42;21.13;;;12.00;;
69246;SDS011;56358;56.328;43.992;2023-08-06T00:27:42;22.15;;;11.40;;
69246;SDS011;56358;56.328;43.992;2023-08-06T00:29:43;18.45;;;11.27;;
69246;SDS011;56358;56.328;43.992;2023-08-06T00:31:44;17.42;;;11.45;;
69246;SDS011;56358;56.328;43.992;2023-08-06T00:33:44;19.00;;;11.25;;
69246;SDS011;56358;56.328;43.992;2023-08-06T00:35:45;18.55;;;11.27;;
69246;SDS011;56358;56.328;43.992;2023-08-06T00:37:46;22.90;;;11.50;;
69246;SDS011;56358;56.328;43.992;2023-08-06T00:39:47;17.92;;;10.52;;
69246;SDS011;56358;56.328;43.992;2023-08-06T00:41:48;20.17;;;10.63;;
69246;SDS011;56358;56.328;43.992;2023-08-06T00:43:49;23.40;;;11.07;;
69246;SDS011;56358;56.328;43.992;2023-08-06T00:45:49;18.98;;;11.15;;
69246;SDS011;56358;56.328;43.992;2023-08-06T00:47:50;19.30;;;11.40;;
69246;SDS011;56358;56.328;43.992;2023-08-06T00:49:52;21.63;;;11.23;;
69246;SDS011;56358;56.328;43.992;2023-08-06T00:51:53;23.17;;;11.40;;
69246;SDS011;56358;56.328;43.992;2023-08-06T00:53:53;22.23;;;12.35;;
69246;SDS011;56358;56.328;43.992;2023-08-06T00:55:55;20.25;;;11.80;;
69246;SDS011;56358;56.328;43.992;2023-08-06T00:57:56;26.65;;;12.00;;
69246;SDS011;56358;56.328;43.992;2023-08-06T00:59:57;22.05;;;11.82;;
69246;SDS011;56358;56.328;43.992;2023-08-06T01:01:58;25.17;;;12.07;;
69246;SDS011;56358;56.328;43.992;2023-08-06T01:03:58;26.88;;;12.65;;
69246;SDS011;56358;56.328;43.992;2023-08-06T01:06:00;25.98;;;13.48;;
69246;SDS011;56358;56.328;43.992;2023-08-06T01:13:11;27.52;;;12.98;;
69246;SDS011;56358;56.328;43.992;2023-08-06T01:16:14;25.35;;;13.32;;
69246;SDS011;56358;56.328;43.992;2023-08-06T01:17:48;24.80;;;13.23;;
69246;SDS011;56358;56.328;43.992;2023-08-06T01:19:48;24.13;;;13.50;;
69246;SDS011;56358;56.328;43.992;2023-08-06T01:21:49;22.35;;;12.48;;
69246;SDS011;56358;56.328;43.992;2023-08-06T01:23:50;23.55;;;12.40;;
69246;SDS011;56358;56.328;43.992;2023-08-06T01:28:33;22.25;;;13.70;;
69246;SDS011;56358;56.328;43.992;2023-08-06T01:30:41;23.40;;;13.07;;
69246;SDS011;56358;56.328;43.992;2023-08-06T01:32:44;23.20;;;12.73;;
69246;SDS011;56358;56.328;43.992;2023-08-06T01:34:46;25.38;;;13.68;;
69246;SDS011;56358;56.328;43.992;2023-08-06T01:36:50;25.30;;;13.10;;
69246;SDS011;56358;56.328;43.992;2023-08-06T01:38:51;21.30;;;13.00;;
69246;SDS011;56358;56.328;43.992;2023-08-06T01:40:53;26.40;;;13.63;;
69246;SDS011;56358;56.328;43.992;2023-08-06T01:42:53;25.45;;;13.73;;
69246;SDS011;56358;56.328;43.992;2023-08-06T01:44:54;24.75;;;13.23;;
69246;SDS011;56358;56.328;43.992;2023-08-06T01:46:55;20.58;;;12.77;;
69246;SDS011;56358;56.328;43.992;2023-08-06T01:48:56;20.67;;;12.98;;
69246;SDS011;56358;56.328;43.992;2023-08-06T01:50:57;22.50;;;13.88;;
69246;SDS011;56358;56.328;43.992;2023-08-06T01:52:58;29.08;;;14.27;;
69246;SDS011;56358;56.328;43.992;2023-08-06T01:54:58;21.17;;;14.40;;
69246;SDS011;56358;56.328;43.992;2023-08-06T01:56:59;20.98;;;13.75;;
69246;SDS011;56358;56.328;43.992;2023-08-06T01:59:00;24.38;;;14.45;;
69246;SDS011;56358;56.328;43.992;2023-08-06T02:01:01;24.90;;;15.57;;
69246;SDS011;56358;56.328;43.992;2023-08-06T02:03:02;26.60;;;14.82;;
69246;SDS011;56358;56.328;43.992;2023-08-06T02:05:03;23.23;;;14.48;;
69246;SDS011;56358;56.328;43.992;2023-08-06T02:07:05;24.03;;;14.77;;
69246;SDS011;56358;56.328;43.992;2023-08-06T02:09:06;23.60;;;13.90;;
69246;SDS011;56358;56.328;43.992;2023-08-06T02:11:06;23.92;;;14.23;;
69246;SDS011;56358;56.328;43.992;2023-08-06T02:13:07;23.05;;;13.60;;
69246;SDS011;56358;56.328;43.992;2023-08-06T02:15:08;23.75;;;13.43;;
69246;SDS011;56358;56.328;43.992;2023-08-06T02:17:09;24.35;;;14.77;;
69246;SDS011;56358;56.328;43.992;2023-08-06T02:19:10;22.58;;;14.13;;
69246;SDS011;56358;56.328;43.992;2023-08-06T02:21:11;24.92;;;15.65;;
69246;SDS011;56358;56.328;43.992;2023-08-06T02:23:11;23.55;;;15.20;;
69246;SDS011;56358;56.328;43.992;2023-08-06T02:25:12;25.02;;;15.20;;
69246;SDS011;56358;56.328;43.992;2023-08-06T02:27:13;25.67;;;15.10;;
69246;SDS011;56358;56.328;43.992;2023-08-06T02:29:14;23.27;;;14.77;;
69246;SDS011;56358;56.328;43.992;2023-08-06T02:31:14;27.60;;;15.32;;
69246;SDS011;56358;56.328;43.992;2023-08-06T02:33:15;24.20;;;15.45;;
69246;SDS011;56358;56.328;43.992;2023-08-06T02:35:15;25.17;;;15.77;;
69246;SDS011;56358;56.328;43.992;2023-08-06T02:37:16;21.63;;;15.15;;
69246;SDS011;56358;56.328;43.992;2023-08-06T02:39:17;24.52;;;14.85;;
69246;SDS011;56358;56.328;43.992;2023-08-06T02:41:18;22.98;;;14.63;;
69246;SDS011;56358;56.328;43.992;2023-08-06T02:43:18;25.85;;;14.90;;
69246;SDS011;56358;56.328;43.992;2023-08-06T02:45:19;24.83;;;14.82;;
69246;SDS011;56358;56.328;43.992;2023-08-06T02:47:20;22.85;;;14.73;;
69246;SDS011;56358;56.328;43.992;2023-08-06T02:49:20;18.98;;;14.00;;
69246;SDS011;56358;56.328;43.992;2023-08-06T02:51:21;26.05;;;14.15;;
69246;SDS011;56358;56.328;43.992;2023-08-06T02:53:22;20.05;;;13.90;;
69246;SDS011;56358;56.328;43.992;2023-08-06T02:55:22;23.90;;;14.13;;
69246;SDS011;56358;56.328;43.992;2023-08-06T02:57:23;24.10;;;14.50;;
69246;SDS011;56358;56.328;43.992;2023-08-06T02:59:24;21.67;;;14.60;;
69246;SDS011;56358;56.328;43.992;2023-08-06T03:01:24;20.42;;;14.05;;
69246;SDS011;56358;56.328;43.992;2023-08-06T03:03:27;21.33;;;14.20;;
69246;SDS011;56358;56.328;43.992;2023-08-06T03:05:27;24.48;;;14.52;;
69246;SDS011;56358;56.328;43.992;2023-08-06T03:07:28;23.10;;;14.65;;
69246;SDS011;56358;56.328;43.992;2023-08-06T03:09:29;28.25;;;14.40;;
69246;SDS011;56358;56.328;43.992;2023-08-06T03:11:29;21.85;;;15.02;;
69246;SDS011;56358;56.328;43.992;2023-08-06T03:13:30;21.90;;;14.13;;
69246;SDS011;56358;56.328;43.992;2023-08-06T03:15:31;28.23;;;16.67;;
69246;SDS011;56358;56.328;43.992;2023-08-06T03:17:31;32.03;;;17.45;;
69246;SDS011;56358;56.328;43.992;2023-08-06T03:19:32;32.88;;;18.10;;
69246;SDS011;56358;56.328;43.992;2023-08-06T03:21:33;29.63;;;15.73;;
69246;SDS011;56358;56.328;43.992;2023-08-06T03:23:33;34.58;;;16.33;;
69246;SDS011;56358;56.328;43.992;2023-08-06T03:25:35;30.13;;;18.02;;
69246;SDS011;56358;56.328;43.992;2023-08-06T03:27:37;34.20;;;17.25;;
69246;SDS011;56358;56.328;43.992;2023-08-06T03:29:37;31.70;;;17.10;;
69246;SDS011;56358;56.328;43.992;2023-08-06T03:31:38;34.67;;;16.85;;
69246;SDS011;56358;56.328;43.992;2023-08-06T03:33:38;32.35;;;17.60;;
69246;SDS011;56358;56.328;43.992;2023-08-06T03:35:39;32.60;;;17.27;;
69246;SDS011;56358;56.328;43.992;2023-08-06T03:37:40;37.25;;;17.95;;
69246;SDS011;56358;56.328;43.992;2023-08-06T03:39:41;33.00;;;17.73;;
69246;SDS011;56358;56.328;43.992;2023-08-06T03:41:41;34.40;;;17.73;;
69246;SDS011;56358;56.328;43.992;2023-08-06T03:43:42;33.42;;;17.27;;
69246;SDS011;56358;56.328;43.992;2023-08-06T03:45:43;33.85;;;18.42;;
69246;SDS011;56358;56.328;43.992;2023-08-06T03:47:43;37.08;;;18.13;;
69246;SDS011;56358;56.328;43.992;2023-08-06T03:49:44;33.30;;;17.85;;
69246;SDS011;56358;56.328;43.992;2023-08-06T03:51:44;34.38;;;18.17;;
69246;SDS011;56358;56.328;43.992;2023-08-06T03:53:46;35.00;;;18.52;;
69246;SDS011;56358;56.328;43.992;2023-08-06T03:55:46;37.47;;;17.35;;
69246;SDS011;56358;56.328;43.992;2023-08-06T03:57:47;33.95;;;17.65;;
69246;SDS011;56358;56.328;43.992;2023-08-06T03:59:48;35.58;;;18.77;;
69246;SDS011;56358;56.328;43.992;2023-08-06T04:01:48;30.42;;;18.42;;
69246;SDS011;56358;56.328;43.992;2023-08-06T04:03:49;36.83;;;20.65;;
69246;SDS011;56358;56.328;43.992;2023-08-06T04:05:50;33.50;;;19.08;;
69246;SDS011;56358;56.328;43.992;2023-08-06T04:07:50;28.73;;;16.48;;
69246;SDS011;56358;56.328;43.992;2023-08-06T04:09:54;26.95;;;16.45;;
69246;SDS011;56358;56.328;43.992;2023-08-06T04:11:57;39.00;;;17.85;;
69246;SDS011;56358;56.328;43.992;2023-08-06T04:13:58;29.27;;;17.15;;
69246;SDS011;56358;56.328;43.992;2023-08-06T04:16:02;31.35;;;17.15;;
69246;SDS011;56358;56.328;43.992;2023-08-06T04:18:04;29.05;;;17.75;;
69246;SDS011;56358;56.328;43.992;2023-08-06T04:20:05;28.52;;;16.83;;
69246;SDS011;56358;56.328;43.992;2023-08-06T04:22:06;26.17;;;17.30;;
69246;SDS011;56358;56.328;43.992;2023-08-06T04:24:07;29.20;;;17.65;;
69246;SDS011;56358;56.328;43.992;2023-08-06T04:26:08;31.70;;;17.70;;
69246;SDS011;56358;56.328;43.992;2023-08-06T04:28:08;30.02;;;17.15;;
69246;SDS011;56358;56.328;43.992;2023-08-06T04:30:09;29.25;;;17.95;;
69246;SDS011;56358;56.328;43.992;2023-08-06T04:32:12;33.00;;;18.95;;
69246;SDS011;56358;56.328;43.992;2023-08-06T04:34:13;28.45;;;19.88;;
69246;SDS011;56358;56.328;43.992;2023-08-06T04:36:13;31.75;;;18.52;;
69246;SDS011;56358;56.328;43.992;2023-08-06T04:38:14;29.08;;;17.80;;
69246;SDS011;56358;56.328;43.992;2023-08-06T04:40:15;29.75;;;17.15;;
69246;SDS011;56358;56.328;43.992;2023-08-06T04:42:15;30.73;;;17.63;;
69246;SDS011;56358;56.328;43.992;2023-08-06T04:44:16;27.63;;;18.45;;
69246;SDS011;56358;56.328;43.992;2023-08-06T04:46:17;30.10;;;18.65;;
69246;SDS011;56358;56.328;43.992;2023-08-06T04:48:18;32.80;;;17.25;;
69246;SDS011;56358;56.328;43.992;2023-08-06T04:50:19;25.40;;;16.48;;
69246;SDS011;56358;56.328;43.992;2023-08-06T04:52:20;29.45;;;17.25;;
69246;SDS011;56358;56.328;43.992;2023-08-06T04:54:21;27.65;;;17.02;;
69246;SDS011;56358;56.328;43.992;2023-08-06T04:56:21;31.40;;;20.35;;
69246;SDS011;56358;56.328;43.992;2023-08-06T04:58:22;28.10;;;17.13;;
69246;SDS011;56358;56.328;43.992;2023-08-06T05:00:22;26.08;;;17.08;;
69246;SDS011;56358;56.328;43.992;2023-08-06T05:02:23;26.67;;;16.65;;
69246;SDS011;56358;56.328;43.992;2023-08-06T05:04:24;24.83;;;16.05;;
69246;SDS011;56358;56.328;43.992;2023-08-06T05:06:24;22.75;;;15.23;;
69246;SDS011;56358;56.328;43.992;2023-08-06T05:08:25;25.40;;;15.48;;
69246;SDS011;56358;56.328;43.992;2023-08-06T05:10:26;24.23;;;15.38;;
69246;SDS011;56358;56.328;43.992;2023-08-06T05:12:27;20.40;;;13.55;;
69246;SDS011;56358;56.328;43.992;2023-08-06T05:14:28;20.38;;;12.90;;
69246;SDS011;56358;56.328;43.992;2023-08-06T05:16:29;18.23;;;11.80;;
69246;SDS011;56358;56.328;43.992;2023-08-06T05:18:29;14.60;;;10.90;;
69246;SDS011;56358;56.328;43.992;2023-08-06T05:20:31;18.98;;;11.77;;
69246;SDS011;56358;56.328;43.992;2023-08-06T05:22:35;15.40;;;9.88;;
69246;SDS011;56358;56.328;43.992;2023-08-06T05:24:36;18.33;;;10.98;;
69246;SDS011;56358;56.328;43.992;2023-08-06T05:26:37;14.00;;;10.10;;
69246;SDS011;56358;56.328;43.992;2023-08-06T05:28:37;16.13;;;10.23;;
69246;SDS011;56358;56.328;43.992;2023-08-06T05:30:39;12.55;;;8.90;;
69246;SDS011;56358;56.328;43.992;2023-08-06T05:32:40;14.40;;;8.47;;
69246;SDS011;56358;56.328;43.992;2023-08-06T05:34:41;12.57;;;7.35;;
69246;SDS011;56358;56.328;43.992;2023-08-06T05:36:42;13.02;;;8.55;;
69246;SDS011;56358;56.328;43.992;2023-08-06T05:38:42;10.50;;;7.18;;
69246;SDS011;56358;56.328;43.992;2023-08-06T05:40:43;13.07;;;6.97;;
69246;SDS011;56358;56.328;43.992;2023-08-06T05:42:44;10.73;;;6.47;;
69246;SDS011;56358;56.328;43.992;2023-08-06T05:44:44;12.43;;;6.32;;
69246;SDS011;56358;56.328;43.992;2023-08-06T05:46:45;6.75;;;4.70;;
69246;SDS011;56358;56.328;43.992;2023-08-06T05:48:46;7.78;;;4.32;;
69246;SDS011;56358;56.328;43.992;2023-08-06T05:50:46;8.52;;;3.92;;
69246;SDS011;56358;56.328;43.992;2023-08-06T05:52:47;10.80;;;4.50;;
69246;SDS011;56358;56.328;43.992;2023-08-06T05:54:48;9.65;;;4.63;;
69246;SDS011;56358;56.328;43.992;2023-08-06T05:56:48;11.40;;;5.57;;
69246;SDS011;56358;56.328;43.992;2023-08-06T05:58:49;9.10;;;5.65;;
69246;SDS011;56358;56.328;43.992;2023-08-06T06:00:53;10.75;;;6.10;;
69246;SDS011;56358;56.328;43.992;2023-08-06T06:02:53;13.43;;;6.28;;
69246;SDS011;56358;56.328;43.992;2023-08-06T06:04:54;9.15;;;6.30;;
69246;SDS011;56358;56.328;43.992;2023-08-06T06:06:55;10.07;;;5.80;;
69246;SDS011;56358;56.328;43.992;2023-08-06T06:08:55;8.02;;;4.78;;
69246;SDS011;56358;56.328;43.992;2023-08-06T06:10:56;9.02;;;4.00;;
69246;SDS011;56358;56.328;43.992;2023-08-06T06:12:57;6.05;;;3.88;;
69246;SDS011;56358;56.328;43.992;2023-08-06T06:14:57;7.18;;;5.32;;
69246;SDS011;56358;56.328;43.992;2023-08-06T06:16:58;8.13;;;3.75;;
69246;SDS011;56358;56.328;43.992;2023-08-06T06:19:00;6.87;;;3.70;;
69246;SDS011;56358;56.328;43.992;2023-08-06T06:21:01;5.50;;;3.58;;
69246;SDS011;56358;56.328;43.992;2023-08-06T06:23:01;5.90;;;3.40;;
69246;SDS011;56358;56.328;43.992;2023-08-06T06:25:02;6.18;;;3.35;;
69246;SDS011;56358;56.328;43.992;2023-08-06T06:27:03;5.32;;;3.10;;
69246;SDS011;56358;56.328;43.992;2023-08-06T06:29:04;5.95;;;2.95;;
69246;SDS011;56358;56.328;43.992;2023-08-06T06:31:05;5.72;;;3.00;;
69246;SDS011;56358;56.328;43.992;2023-08-06T06:33:06;4.70;;;3.00;;
69246;SDS011;56358;56.328;43.992;2023-08-06T06:35:07;5.30;;;3.00;;
69246;SDS011;56358;56.328;43.992;2023-08-06T06:37:08;3.95;;;2.22;;
69246;SDS011;56358;56.328;43.992;2023-08-06T06:39:08;3.65;;;2.40;;
69246;SDS011;56358;56.328;43.992;2023-08-06T06:41:09;4.45;;;2.75;;
69246;SDS011;56358;56.328;43.992;2023-08-06T06:43:10;4.35;;;2.60;;
69246;SDS011;56358;56.328;43.992;2023-08-06T06:45:11;6.55;;;2.33;;
69246;SDS011;56358;56.328;43.992;2023-08-06T06:47:11;3.42;;;2.33;;
69246;SDS011;56358;56.328;43.992;2023-08-06T06:49:12;5.60;;;2.25;;
69246;SDS011;56358;56.328;43.992;2023-08-06T06:51:13;4.68;;;2.40;;
69246;SDS011;56358;56.328;43.992;2023-08-06T06:53:14;4.97;;;2.60;;
69246;SDS011;56358;56.328;43.992;2023-08-06T06:55:15;4.88;;;2.55;;
69246;SDS011;56358;56.328;43.992;2023-08-06T06:57:15;4.00;;;2.33;;
69246;SDS011;56358;56.328;43.992;2023-08-06T06:59:16;5.05;;;2.33;;
69246;SDS011;56358;56.328;43.992;2023-08-06T07:01:16;3.35;;;2.40;;
69246;SDS011;56358;56.328;43.992;2023-08-06T07:03:19;3.50;;;2.10;;
69246;SDS011;56358;56.328;43.992;2023-08-06T07:05:23;4.75;;;2.40;;
69246;SDS011;56358;56.328;43.992;2023-08-06T07:07:23;3.10;;;2.53;;
69246;SDS011;56358;56.328;43.992;2023-08-06T07:09:24;5.03;;;2.90;;
69246;SDS011;56358;56.328;43.992;2023-08-06T07:11:25;7.70;;;2.53;;
69246;SDS011;56358;56.328;43.992;2023-08-06T07:13:25;5.78;;;3.00;;
69246;SDS011;56358;56.328;43.992;2023-08-06T07:15:26;6.85;;;3.10;;
69246;SDS011;56358;56.328;43.992;2023-08-06T07:17:26;5.35;;;2.80;;
69246;SDS011;56358;56.328;43.992;2023-08-06T07:19:27;8.68;;;3.38;;
69246;SDS011;56358;56.328;43.992;2023-08-06T07:21:28;5.53;;;3.10;;
69246;SDS011;56358;56.328;43.992;2023-08-06T07:23:29;5.72;;;2.80;;
69246;SDS011;56358;56.328;43.992;2023-08-06T07:25:29;5.25;;;2.70;;
69246;SDS011;56358;56.328;43.992;2023-08-06T07:27:30;5.97;;;2.88;;
69246;SDS011;56358;56.328;43.992;2023-08-06T07:29:32;4.70;;;2.67;;
69246;SDS011;56358;56.328;43.992;2023-08-06T07:31:32;4.85;;;2.70;;
69246;SDS011;56358;56.328;43.992;2023-08-06T07:33:33;3.33;;;2.20;;
69246;SDS011;56358;56.328;43.992;2023-08-06T07:35:34;5.22;;;2.20;;
69246;SDS011;56358;56.328;43.992;2023-08-06T07:37:35;4.55;;;1.90;;
69246;SDS011;56358;56.328;43.992;2023-08-06T07:39:36;2.90;;;1.90;;
69246;SDS011;56358;56.328;43.992;2023-08-06T07:41:39;4.20;;;2.40;;
69246;SDS011;56358;56.328;43.992;2023-08-06T07:43:41;2.85;;;1.98;;
69246;SDS011;56358;56.328;43.992;2023-08-06T07:45:43;4.88;;;2.65;;
69246;SDS011;56358;56.328;43.992;2023-08-06T07:47:43;3.17;;;2.20;;
69246;SDS011;56358;56.328;43.992;2023-08-06T07:49:44;5.07;;;2.63;;
69246;SDS011;56358;56.328;43.992;2023-08-06T07:51:45;5.38;;;2.40;;
69246;SDS011;56358;56.328;43.992;2023-08-06T07:53:45;4.20;;;2.20;;
69246;SDS011;56358;56.328;43.992;2023-08-06T07:55:52;3.70;;;1.92;;
69246;SDS011;56358;56.328;43.992;2023-08-06T07:57:54;3.60;;;1.60;;
69246;SDS011;56358;56.328;43.992;2023-08-06T07:59:55;2.67;;;1.85;;
69246;SDS011;56358;56.328;43.992;2023-08-06T08:01:55;4.65;;;2.40;;
69246;SDS011;56358;56.328;43.992;2023-08-06T08:03:56;6.18;;;2.20;;
69246;SDS011;56358;56.328;43.992;2023-08-06T08:05:57;3.08;;;1.95;;
69246;SDS011;56358;56.328;43.992;2023-08-06T08:07:57;3.67;;;1.45;;
69246;SDS011;56358;56.328;43.992;2023-08-06T08:09:58;3.13;;;1.20;;
69246;SDS011;56358;56.328;43.992;2023-08-06T08:11:59;3.58;;;1.38;;
69246;SDS011;56358;56.328;43.992;2023-08-06T08:14:01;2.55;;;1.48;;
69246;SDS011;56358;56.328;43.992;2023-08-06T08:16:02;5.50;;;2.13;;
69246;SDS011;56358;56.328;43.992;2023-08-06T08:18:03;6.35;;;2.63;;
69246;SDS011;56358;56.328;43.992;2023-08-06T08:20:04;4.57;;;2.15;;
69246;SDS011;56358;56.328;43.992;2023-08-06T08:22:06;4.20;;;2.67;;
69246;SDS011;56358;56.328;43.992;2023-08-06T08:24:07;3.60;;;2.42;;
69246;SDS011;56358;56.328;43.992;2023-08-06T08:26:08;5.50;;;2.85;;
69246;SDS011;56358;56.328;43.992;2023-08-06T08:28:09;5.45;;;2.85;;
69246;SDS011;56358;56.328;43.992;2023-08-06T08:30:10;6.88;;;3.15;;
69246;SDS011;56358;56.328;43.992;2023-08-06T08:32:10;6.22;;;2.70;;
69246;SDS011;56358;56.328;43.992;2023-08-06T08:34:11;5.05;;;2.60;;
69246;SDS011;56358;56.328;43.992;2023-08-06T08:36:12;5.85;;;3.33;;
69246;SDS011;56358;56.328;43.992;2023-08-06T08:38:13;4.20;;;3.20;;
69246;SDS011;56358;56.328;43.992;2023-08-06T08:40:14;5.60;;;3.30;;
69246;SDS011;56358;56.328;43.992;2023-08-06T08:42:15;4.88;;;2.78;;
69246;SDS011;56358;56.328;43.992;2023-08-06T08:44:16;5.95;;;3.03;;
69246;SDS011;56358;56.328;43.992;2023-08-06T08:46:19;9.10;;;4.85;;
69246;SDS011;56358;56.328;43.992;2023-08-06T08:48:20;4.38;;;2.60;;
69246;SDS011;56358;56.328;43.992;2023-08-06T08:50:21;4.13;;;2.22;;
69246;SDS011;56358;56.328;43.992;2023-08-06T08:52:22;4.20;;;2.58;;
69246;SDS011;56358;56.328;43.992;2023-08-06T08:54:25;3.28;;;2.10;;
69246;SDS011;56358;56.328;43.992;2023-08-06T08:56:27;4.07;;;2.13;;
69246;SDS011;56358;56.328;43.992;2023-08-06T08:58:27;5.30;;;2.30;;
69246;SDS011;56358;56.328;43.992;2023-08-06T09:00:28;3.33;;;2.30;;
69246;SDS011;56358;56.328;43.992;2023-08-06T09:02:29;4.60;;;2.10;;
69246;SDS011;56358;56.328;43.992;2023-08-06T09:06:33;3.92;;;2.08;;
69246;SDS011;56358;56.328;43.992;2023-08-06T09:08:41;2.95;;;2.05;;
69246;SDS011;56358;56.328;43.992;2023-08-06T09:10:48;3.38;;;1.80;;
69246;SDS011;56358;56.328;43.992;2023-08-06T09:12:50;5.30;;;2.08;;
69246;SDS011;56358;56.328;43.992;2023-08-06T09:14:53;4.70;;;1.80;;
69246;SDS011;56358;56.328;43.992;2023-08-06T09:16:54;4.22;;;1.90;;
69246;SDS011;56358;56.328;43.992;2023-08-06T09:18:55;3.92;;;2.10;;
69246;SDS011;56358;56.328;43.992;2023-08-06T09:21:12;2.20;;;1.57;;
69246;SDS011;56358;56.328;43.992;2023-08-06T09:23:15;4.90;;;1.80;;
69246;SDS011;56358;56.328;43.992;2023-08-06T09:25:22;3.00;;;1.80;;
69246;SDS011;56358;56.328;43.992;2023-08-06T09:27:25;4.05;;;2.10;;
69246;SDS011;56358;56.328;43.992;2023-08-06T09:29:26;3.83;;;1.73;;
69246;SDS011;56358;56.328;43.992;2023-08-06T09:31:44;4.20;;;1.90;;
69246;SDS011;56358;56.328;43.992;2023-08-06T09:33:46;5.97;;;2.78;;
69246;SDS011;56358;56.328;43.992;2023-08-06T09:35:49;4.80;;;2.55;;
69246;SDS011;56358;56.328;43.992;2023-08-06T09:37:50;4.45;;;2.47;;
69246;SDS011;56358;56.328;43.992;2023-08-06T09:39:51;3.55;;;2.22;;
69246;SDS011;56358;56.328;43.992;2023-08-06T09:42:01;3.45;;;2.10;;
69246;SDS011;56358;56.328;43.992;2023-08-06T09:44:02;3.28;;;1.88;;
69246;SDS011;56358;56.328;43.992;2023-08-06T09:46:03;3.10;;;1.70;;
69246;SDS011;56358;56.328;43.992;2023-08-06T09:48:11;3.88;;;2.10;;
69246;SDS011;56358;56.328;43.992;2023-08-06T09:50:14;3.22;;;2.50;;
69246;SDS011;56358;56.328;43.992;2023-08-06T09:52:18;3.30;;;2.10;;
69246;SDS011;56358;56.328;43.992;2023-08-06T09:54:20;3.35;;;2.13;;
69246;SDS011;56358;56.328;43.992;2023-08-06T09:56:22;6.07;;;2.25;;
69246;SDS011;56358;56.328;43.992;2023-08-06T09:58:26;2.95;;;1.90;;
69246;SDS011;56358;56.328;43.992;2023-08-06T10:00:27;5.45;;;2.10;;
69246;SDS011;56358;56.328;43.992;2023-08-06T10:02:29;5.57;;;2.20;;
69246;SDS011;56358;56.328;43.992;2023-08-06T10:04:32;4.18;;;2.47;;
69246;SDS011;56358;56.328;43.992;2023-08-06T10:06:33;5.32;;;2.45;;
69246;SDS011;56358;56.328;43.992;2023-08-06T10:08:36;2.80;;;1.90;;
69246;SDS011;56358;56.328;43.992;2023-08-06T10:10:37;3.90;;;2.00;;
69246;SDS011;56358;56.328;43.992;2023-08-06T10:12:39;3.30;;;1.95;;
69246;SDS011;56358;56.328;43.992;2023-08-06T10:14:45;4.18;;;2.40;;
69246;SDS011;56358;56.328;43.992;2023-08-06T10:16:47;5.05;;;1.80;;
69246;SDS011;56358;56.328;43.992;2023-08-06T10:18:49;3.53;;;2.10;;
69246;SDS011;56358;56.328;43.992;2023-08-06T10:20:50;3.65;;;2.17;;
69246;SDS011;56358;56.328;43.992;2023-08-06T10:23:01;4.85;;;2.20;;
69246;SDS011;56358;56.328;43.992;2023-08-06T10:25:02;3.50;;;2.40;;
69246;SDS011;56358;56.328;43.992;2023-08-06T10:27:07;3.28;;;2.20;;
69246;SDS011;56358;56.328;43.992;2023-08-06T10:31:53;5.57;;;2.88;;
69246;SDS011;56358;56.328;43.992;2023-08-06T10:33:55;6.93;;;3.95;;
69246;SDS011;56358;56.328;43.992;2023-08-06T10:35:55;4.10;;;2.20;;
69246;SDS011;56358;56.328;43.992;2023-08-06T10:38:05;3.40;;;1.98;;
69246;SDS011;56358;56.328;43.992;2023-08-06T10:40:09;3.15;;;2.05;;
69246;SDS011;56358;56.328;43.992;2023-08-06T10:42:19;4.90;;;2.40;;
69246;SDS011;56358;56.328;43.992;2023-08-06T10:44:21;5.82;;;2.30;;
69246;SDS011;56358;56.328;43.992;2023-08-06T10:46:22;4.95;;;2.20;;
69246;SDS011;56358;56.328;43.992;2023-08-06T10:50:39;3.13;;;2.10;;
69246;SDS011;56358;56.328;43.992;2023-08-06T10:52:40;4.28;;;2.35;;
69246;SDS011;56358;56.328;43.992;2023-08-06T10:54:41;3.42;;;2.20;;
69246;SDS011;56358;56.328;43.992;2023-08-06T10:56:41;3.10;;;1.95;;
69246;SDS011;56358;56.328;43.992;2023-08-06T10:58:42;2.70;;;2.00;;
69246;SDS011;56358;56.328;43.992;2023-08-06T11:00:45;4.32;;;2.13;;
69246;SDS011;56358;56.328;43.992;2023-08-06T11:02:47;3.47;;;2.07;;
69246;SDS011;56358;56.328;43.992;2023-08-06T11:04:49;3.30;;;2.05;;
69246;SDS011;56358;56.328;43.992;2023-08-06T11:06:53;4.25;;;2.10;;
69246;SDS011;56358;56.328;43.992;2023-08-06T11:08:53;3.70;;;1.88;;
69246;SDS011;56358;56.328;43.992;2023-08-06T11:10:55;5.35;;;2.45;;
69246;SDS011;56358;56.328;43.992;2023-08-06T11:13:08;4.57;;;1.90;;
69246;SDS011;56358;56.328;43.992;2023-08-06T11:15:09;4.68;;;2.20;;
69246;SDS011;56358;56.328;43.992;2023-08-06T11:17:11;4.40;;;2.13;;
69246;SDS011;56358;56.328;43.992;2023-08-06T11:19:12;3.38;;;2.15;;
69246;SDS011;56358;56.328;43.992;2023-08-06T11:21:18;4.25;;;2.67;;
69246;SDS011;56358;56.328;43.992;2023-08-06T11:23:20;4.35;;;2.20;;
69246;SDS011;56358;56.328;43.992;2023-08-06T11:25:20;3.85;;;2.25;;
69246;SDS011;56358;56.328;43.992;2023-08-06T11:27:22;4.10;;;2.13;;
69246;SDS011;56358;56.328;43.992;2023-08-06T11:29:23;4.25;;;2.60;;
69246;SDS011;56358;56.328;43.992;2023-08-06T11:31:24;4.20;;;1.83;;
69246;SDS011;56358;56.328;43.992;2023-08-06T11:33:25;4.05;;;1.88;;
69246;SDS011;56358;56.328;43.992;2023-08-06T11:35:26;4.68;;;2.30;;
69246;SDS011;56358;56.328;43.992;2023-08-06T11:37:27;3.05;;;2.03;;
69246;SDS011;56358;56.328;43.992;2023-08-06T11:39:28;5.93;;;2.35;;
69246;SDS011;56358;56.328;43.992;2023-08-06T11:41:29;5.88;;;2.15;;
69246;SDS011;56358;56.328;43.992;2023-08-06T11:43:30;4.47;;;2.00;;
69246;SDS011;56358;56.328;43.992;2023-08-06T11:45:31;4.10;;;1.88;;
69246;SDS011;56358;56.328;43.992;2023-08-06T11:47:37;3.20;;;2.00;;
69246;SDS011;56358;56.328;43.992;2023-08-06T11:49:41;3.75;;;2.17;;
69246;SDS011;56358;56.328;43.992;2023-08-06T11:51:45;4.40;;;2.17;;
69246;SDS011;56358;56.328;43.992;2023-08-06T11:53:48;6.15;;;2.58;;
69246;SDS011;56358;56.328;43.992;2023-08-06T11:55:50;4.25;;;2.50;;
69246;SDS011;56358;56.328;43.992;2023-08-06T11:57:51;5.72;;;2.80;;
69246;SDS011;56358;56.328;43.992;2023-08-06T11:59:53;5.50;;;2.50;;
69246;SDS011;56358;56.328;43.992;2023-08-06T12:01:54;5.57;;;2.23;;
69246;SDS011;56358;56.328;43.992;2023-08-06T12:04:00;4.32;;;2.00;;
69246;SDS011;56358;56.328;43.992;2023-08-06T12:06:01;3.65;;;1.90;;
69246;SDS011;56358;56.328;43.992;2023-08-06T12:08:02;4.47;;;2.10;;